Chaser — WDE5354 — position and weather

sailwx.info

Track history (hours):
 
Tides and Currents Weather Stations Pressure Air Temp Water Temp Dewpoint Dewpoint Depression Visibility Wind Speed Wind Dir Waves Ship Positions

Chaser

Owner: Chaser Parent's Club Inc., Benicia, CA. More information available from US FCC via Universal Licensing System and Coast Guard Vessel Documentation Center.

Last reported at 2017-Oct-08 18:56 UTC. Time now 2017-Oct-18 11:16 UTC.
Position N 38°10' W 122°18'.
Warning: this ship's position is 9 days out of date.

Length 30 m; draft 3 m.

Type: Pleasure craft. MMSI: 367365440.

Date/timePositionNaut miles runAvg speedWind from/ knotsBaromVisibWave heightAir tempDewpointWater temp
2017-Oct-08 18:56N 38°10' W 122°18'5 0.3
2017-Oct-08 03:31N 38°06' W 122°16'0 3.6
2017-Oct-08 03:29N 38°06' W 122°16'1 1.9
2017-Oct-08 03:00N 38°07' W 122°16'0 0.1
2017-Oct-08 02:28N 38°07' W 122°16'1 2.1
2017-Oct-08 01:55N 38°06' W 122°15'2 4.7
2017-Oct-08 01:30N 38°04' W 122°16'4 7.4
2017-Oct-08 00:56N 38°02' W 122°21'3 7.4
2017-Oct-08 00:30N 37°60' W 122°24'4 7.2
2017-Oct-08 00:00N 37°57' W 122°26'4 7.5
2017-Oct-07 23:30N 37°53' W 122°25'3 6.2
2017-Oct-07 22:58N 37°50' W 122°26'0 0.0
2017-Oct-07 22:28N 37°50' W 122°26'0 0.1
2017-Oct-07 21:58N 37°50' W 122°26'0 0.0
2017-Oct-07 21:28N 37°50' W 122°26'0 0.0
2017-Oct-07 20:58N 37°50' W 122°26'0 0.0
2017-Oct-07 20:28N 37°50' W 122°26'0 0.0
2017-Oct-07 19:58N 37°50' W 122°26'0 0.0
2017-Oct-07 19:28N 37°50' W 122°26'0 0.0
2017-Oct-07 18:55N 37°50' W 122°26'0 0.0
2017-Oct-07 18:30N 37°50' W 122°26'2 4.8
2017-Oct-07 18:00N 37°49' W 122°29'4 7.7
2017-Oct-07 17:30N 37°53' W 122°26'4 7.9
2017-Oct-07 16:59N 37°57' W 122°26'4 8.5
2017-Oct-07 16:29N 38°01' W 122°23'510.3
2017-Oct-07 15:57N 38°03' W 122°17'3 5.8
2017-Oct-07 15:29N 38°06' W 122°16'1 1.7
2017-Oct-07 15:01N 38°07' W 122°16'0 0.0
2017-Oct-07 14:31N 38°07' W 122°16'0 0.3
2017-Oct-07 14:00N 38°06' W 122°16'1 0.2
2017-Oct-07 10:07N 38°06' W 122°16'0 0.0
2017-Oct-07 10:01N 38°06' W 122°16'0 0.0
2017-Oct-07 09:30N 38°06' W 122°16'0 0.0
2017-Oct-07 08:13N 38°06' W 122°16'0 0.0
2017-Oct-07 07:53N 38°06' W 122°16'0 0.0
2017-Oct-07 07:30N 38°06' W 122°16'0 0.0
2017-Oct-07 04:06N 38°06' W 122°16'0 0.0
2017-Oct-07 03:59N 38°06' W 122°16'0 0.0
2017-Oct-07 03:29N 38°06' W 122°16'0 0.0
2017-Oct-07 02:45N 38°06' W 122°16'0 0.0
2017-Oct-07 02:07N 38°06' W 122°16'0 0.6
2017-Oct-07 01:58N 38°06' W 122°16'4 9.1
2017-Oct-07 01:31N 38°10' W 122°18'  
Track history (hours):
 
Tides and Currents Weather Stations Pressure Air Temp Water Temp Dewpoint Dewpoint Depression Visibility Wind Speed Wind Dir Waves Ship Positions

Chaser

Owner: Chaser Parent's Club Inc., Benicia, CA. More information available from US FCC via Universal Licensing System and Coast Guard Vessel Documentation Center.

Last reported at 2017-Oct-08 18:56 UTC. Time now 2017-Oct-18 11:16 UTC.
Position N 38°10' W 122°18'.
Warning: this ship's position is 9 days out of date.

Length 30 m; draft 3 m.

Type: Pleasure craft. MMSI: 367365440.

Date/timePositionNaut miles runAvg speedWind from/ knotsBaromVisibWave heightAir tempDewpointWater temp
2017-Oct-08 18:56N 38°10' W 122°18'5 0.3
2017-Oct-08 03:31N 38°06' W 122°16'0 3.6
2017-Oct-08 03:29N 38°06' W 122°16'1 1.9
2017-Oct-08 03:00N 38°07' W 122°16'0 0.1
2017-Oct-08 02:28N 38°07' W 122°16'1 2.1
2017-Oct-08 01:55N 38°06' W 122°15'2 4.7
2017-Oct-08 01:30N 38°04' W 122°16'4 7.4
2017-Oct-08 00:56N 38°02' W 122°21'3 7.4
2017-Oct-08 00:30N 37°60' W 122°24'4 7.2
2017-Oct-08 00:00N 37°57' W 122°26'4 7.5
2017-Oct-07 23:30N 37°53' W 122°25'3 6.2
2017-Oct-07 22:58N 37°50' W 122°26'0 0.0
2017-Oct-07 22:28N 37°50' W 122°26'0 0.1
2017-Oct-07 21:58N 37°50' W 122°26'0 0.0
2017-Oct-07 21:28N 37°50' W 122°26'0 0.0
2017-Oct-07 20:58N 37°50' W 122°26'0 0.0
2017-Oct-07 20:28N 37°50' W 122°26'0 0.0
2017-Oct-07 19:58N 37°50' W 122°26'0 0.0
2017-Oct-07 19:28N 37°50' W 122°26'0 0.0
2017-Oct-07 18:55N 37°50' W 122°26'0 0.0
2017-Oct-07 18:30N 37°50' W 122°26'2 4.8
2017-Oct-07 18:00N 37°49' W 122°29'4 7.7
2017-Oct-07 17:30N 37°53' W 122°26'4 7.9
2017-Oct-07 16:59N 37°57' W 122°26'4 8.5
2017-Oct-07 16:29N 38°01' W 122°23'510.3
2017-Oct-07 15:57N 38°03' W 122°17'3 5.8
2017-Oct-07 15:29N 38°06' W 122°16'1 1.7
2017-Oct-07 15:01N 38°07' W 122°16'0 0.0
2017-Oct-07 14:31N 38°07' W 122°16'0 0.3
2017-Oct-07 14:00N 38°06' W 122°16'1 0.2
2017-Oct-07 10:07N 38°06' W 122°16'0 0.0
2017-Oct-07 10:01N 38°06' W 122°16'0 0.0
2017-Oct-07 09:30N 38°06' W 122°16'0 0.0
2017-Oct-07 08:13N 38°06' W 122°16'0 0.0
2017-Oct-07 07:53N 38°06' W 122°16'0 0.0
2017-Oct-07 07:30N 38°06' W 122°16'0 0.0
2017-Oct-07 04:06N 38°06' W 122°16'0 0.0
2017-Oct-07 03:59N 38°06' W 122°16'0 0.0
2017-Oct-07 03:29N 38°06' W 122°16'0 0.0
2017-Oct-07 02:45N 38°06' W 122°16'0 0.0
2017-Oct-07 02:07N 38°06' W 122°16'0 0.6
2017-Oct-07 01:58N 38°06' W 122°16'4 9.1
2017-Oct-07 01:31N 38°10' W 122°18'  

Dump ship's entire track history